createdAt,value
2023-01-23T00:01:27.974Z,9.48
2023-01-23T00:03:56.478Z,9.38
2023-01-23T00:06:24.307Z,9.82
2023-01-23T00:08:51.405Z,10.02
2023-01-23T00:11:21.547Z,8.82
2023-01-23T00:13:48.937Z,9.77
2023-01-23T00:16:23.275Z,10.13
2023-01-23T00:18:50.943Z,10.18
2023-01-23T00:21:20.295Z,9.43
2023-01-23T00:23:49.968Z,9.18
2023-01-23T00:26:22.532Z,9.23
2023-01-23T00:28:50.730Z,9.32
2023-01-23T00:31:21.181Z,9.23
2023-01-23T00:33:48.352Z,9.60
2023-01-23T00:36:15.759Z,9.07
2023-01-23T00:38:43.229Z,10.70
2023-01-23T00:41:10.995Z,9.70
2023-01-23T00:43:38.502Z,9.18
2023-01-23T00:46:07.573Z,9.55
2023-01-23T00:48:34.763Z,8.93
2023-01-23T00:51:01.885Z,9.68
2023-01-23T00:53:28.996Z,9.38
2023-01-23T00:55:56.193Z,9.38
2023-01-23T00:58:23.403Z,9.15
2023-01-23T01:00:50.563Z,9.23
2023-01-23T01:03:17.658Z,9.60
2023-01-23T01:05:44.774Z,10.50
2023-01-23T01:08:12.055Z,9.68
2023-01-23T01:10:42.461Z,9.93
2023-01-23T01:13:13.629Z,10.10
2023-01-23T01:15:41.060Z,10.23
2023-01-23T01:18:08.106Z,9.95
2023-01-23T01:20:35.182Z,10.70
2023-01-23T01:23:03.027Z,9.45
2023-01-23T01:25:30.552Z,9.95
2023-01-23T01:27:57.719Z,10.38
2023-01-23T01:30:27.913Z,9.73
2023-01-23T01:32:55.384Z,9.73
2023-01-23T01:35:23.471Z,10.02
2023-01-23T01:37:51.569Z,11.43
2023-01-23T01:40:26.283Z,10.35
2023-01-23T01:42:58.971Z,11.43
2023-01-23T01:46:03.934Z,11.73
2023-01-23T01:48:36.652Z,10.77
2023-01-23T01:51:14.652Z,11.13
2023-01-23T01:53:42.192Z,10.23
2023-01-23T01:56:13.664Z,10.15
2023-01-23T01:58:44.105Z,10.85
2023-01-23T02:01:11.656Z,12.05
2023-01-23T02:03:39.874Z,11.52
2023-01-23T02:06:07.458Z,12.30
2023-01-23T02:09:04.824Z,10.93
2023-01-23T02:11:32.139Z,10.60
2023-01-23T02:13:59.180Z,11.15
2023-01-23T02:16:33.923Z,11.05
2023-01-23T02:19:08.626Z,11.60
2023-01-23T02:21:39.079Z,10.93
2023-01-23T02:24:23.680Z,10.90
2023-01-23T02:26:50.817Z,11.48
2023-01-23T02:29:20.220Z,12.27
2023-01-23T02:31:49.679Z,10.35
2023-01-23T02:34:17.125Z,10.43
2023-01-23T02:36:48.155Z,11.60
2023-01-23T02:39:18.036Z,10.60
2023-01-23T02:41:48.435Z,12.10
2023-01-23T02:44:27.995Z,11.02
2023-01-23T02:46:57.269Z,11.85
2023-01-23T02:49:24.945Z,11.57
2023-01-23T02:51:53.774Z,11.65
2023-01-23T02:54:22.623Z,12.20
2023-01-23T02:56:50.050Z,12.02
2023-01-23T02:59:35.645Z,11.10
2023-01-23T03:02:04.403Z,11.35
2023-01-23T03:04:31.564Z,11.23
2023-01-23T03:06:59.276Z,12.38
2023-01-23T03:09:26.881Z,11.10
2023-01-23T03:11:54.005Z,12.13
2023-01-23T03:14:23.862Z,11.00
2023-01-23T03:16:53.593Z,11.77
2023-01-23T03:19:23.477Z,11.13
2023-01-23T03:21:51.492Z,11.25
2023-01-23T03:24:19.935Z,10.88
2023-01-23T03:26:48.717Z,11.88
2023-01-23T03:29:43.865Z,10.73
2023-01-23T03:32:13.036Z,11.15
2023-01-23T03:34:41.472Z,11.68
2023-01-23T03:37:10.258Z,11.40
2023-01-23T03:39:56.092Z,13.65
2023-01-23T03:42:23.567Z,12.45
2023-01-23T03:44:52.513Z,11.88
2023-01-23T03:47:20.740Z,11.77
2023-01-23T03:49:47.963Z,11.15
2023-01-23T03:52:15.090Z,12.55
2023-01-23T03:54:42.275Z,11.82
2023-01-23T03:57:10.189Z,12.05
2023-01-23T03:59:37.376Z,13.52
2023-01-23T04:02:07.612Z,13.90
2023-01-23T04:04:35.729Z,11.93
2023-01-23T04:07:03.791Z,11.90
2023-01-23T04:09:30.908Z,12.70
2023-01-23T04:11:59.600Z,12.43
2023-01-23T04:14:27.794Z,12.93
2023-01-23T04:16:55.234Z,11.30
2023-01-23T04:19:22.357Z,12.95
2023-01-23T04:21:50.066Z,12.77
2023-01-23T04:24:17.725Z,12.38
2023-01-23T04:26:45.518Z,12.52
2023-01-23T04:29:13.165Z,11.93
2023-01-23T04:31:40.349Z,12.65
2023-01-23T04:34:07.607Z,12.15
2023-01-23T04:36:35.052Z,12.25
2023-01-23T04:39:03.190Z,12.90
2023-01-23T04:41:33.443Z,12.20
2023-01-23T04:44:20.304Z,13.38
2023-01-23T04:46:53.109Z,12.95
2023-01-23T04:49:22.333Z,12.30
2023-01-23T04:51:50.074Z,13.20
2023-01-23T04:54:18.259Z,12.98
2023-01-23T04:56:45.676Z,12.55
2023-01-23T04:59:13.439Z,11.85
2023-01-23T05:01:40.959Z,13.07
2023-01-23T05:04:08.089Z,11.93
2023-01-23T05:06:35.260Z,12.40
2023-01-23T05:09:02.619Z,12.48
2023-01-23T05:11:30.399Z,12.70
2023-01-23T05:13:57.487Z,13.25
2023-01-23T05:16:25.175Z,13.00
2023-01-23T05:18:52.230Z,12.98
2023-01-23T05:21:19.348Z,13.88
2023-01-23T05:23:46.459Z,12.88
2023-01-23T05:26:13.589Z,13.77
2023-01-23T05:28:41.127Z,12.35
2023-01-23T05:31:08.347Z,12.38
2023-01-23T05:33:35.529Z,12.52
2023-01-23T05:36:03.144Z,13.00
2023-01-23T05:38:31.164Z,13.02
2023-01-23T05:40:58.251Z,12.90
2023-01-23T05:43:25.421Z,12.27
2023-01-23T05:45:52.539Z,12.82
2023-01-23T05:48:19.632Z,13.63
2023-01-23T05:50:46.727Z,12.77
2023-01-23T05:53:13.831Z,12.88
2023-01-23T05:55:43.594Z,13.25
2023-01-23T05:58:11.016Z,13.07
2023-01-23T06:00:38.038Z,12.75
2023-01-23T06:03:06.517Z,12.93
2023-01-23T06:05:33.636Z,12.82
2023-01-23T06:08:00.732Z,12.73
2023-01-23T06:10:27.816Z,13.23
2023-01-23T06:12:55.251Z,12.90
2023-01-23T06:15:22.428Z,12.63
2023-01-23T06:17:49.633Z,12.65
2023-01-23T06:20:16.956Z,13.57
2023-01-23T06:22:44.077Z,13.30
2023-01-23T06:25:11.607Z,14.20
2023-01-23T06:27:38.835Z,12.85
2023-01-23T06:30:06.559Z,12.07
2023-01-23T06:32:33.594Z,13.32
2023-01-23T06:35:00.814Z,13.27
2023-01-23T06:37:27.916Z,13.90
2023-01-23T06:39:55.217Z,14.13
2023-01-23T06:42:22.262Z,14.00
2023-01-23T06:44:49.429Z,15.18
2023-01-23T06:47:16.746Z,13.80
2023-01-23T06:49:46.052Z,14.45
2023-01-23T06:52:13.272Z,13.98
2023-01-23T06:54:40.368Z,13.10
2023-01-23T06:57:07.425Z,12.82
2023-01-23T06:59:34.502Z,13.63
2023-01-23T07:02:01.663Z,13.73
2023-01-23T07:04:28.758Z,13.80
2023-01-23T07:06:58.606Z,13.43
2023-01-23T07:09:28.774Z,13.98
2023-01-23T07:11:56.187Z,12.45
2023-01-23T07:14:23.298Z,14.23
2023-01-23T07:16:50.399Z,14.50
2023-01-23T07:19:17.503Z,14.00
2023-01-23T07:21:45.077Z,13.88
2023-01-23T07:24:12.143Z,15.00
2023-01-23T07:26:39.162Z,15.00
2023-01-23T07:29:08.751Z,14.05
2023-01-23T07:31:36.225Z,13.40
2023-01-23T07:34:03.577Z,15.63
2023-01-23T07:36:30.945Z,14.45
2023-01-23T07:38:59.068Z,15.73
2023-01-23T07:41:26.457Z,14.55
2023-01-23T07:43:53.918Z,14.95
2023-01-23T07:46:21.079Z,15.25
2023-01-23T07:48:48.316Z,16.48
2023-01-23T07:51:15.545Z,14.48
2023-01-23T07:53:42.701Z,16.63
2023-01-23T07:56:10.171Z,14.93
2023-01-23T07:58:37.242Z,15.20
2023-01-23T08:01:09.292Z,14.18
2023-01-23T08:03:36.524Z,14.65
2023-01-23T08:06:03.771Z,15.57
2023-01-23T08:08:30.841Z,15.82
2023-01-23T08:10:58.223Z,15.27
2023-01-23T08:13:28.272Z,16.30
2023-01-23T08:15:58.116Z,16.42
2023-01-23T08:18:26.196Z,15.10
2023-01-23T08:20:57.478Z,15.32
2023-01-23T08:23:26.106Z,15.93
2023-01-23T08:25:58.073Z,16.20
2023-01-23T08:28:26.042Z,15.00
2023-01-23T08:30:53.963Z,15.27
2023-01-23T08:33:21.612Z,16.23
2023-01-23T08:35:53.943Z,14.90
2023-01-23T08:38:21.301Z,16.10
2023-01-23T08:40:49.838Z,16.15
2023-01-23T08:43:20.815Z,16.75
2023-01-23T08:45:50.730Z,17.63
2023-01-23T08:48:18.598Z,16.48
2023-01-23T08:50:45.892Z,14.90
2023-01-23T08:53:13.639Z,16.85
2023-01-23T08:55:41.400Z,16.25
2023-01-23T08:58:13.129Z,16.20
2023-01-23T09:00:41.381Z,16.17
2023-01-23T09:03:11.388Z,17.15
2023-01-23T09:05:38.616Z,16.65
2023-01-23T09:08:05.875Z,16.60
2023-01-23T09:10:32.989Z,18.55
2023-01-23T09:13:00.103Z,17.98
2023-01-23T09:15:27.292Z,18.30
2023-01-23T09:17:54.894Z,18.27
2023-01-23T09:20:22.629Z,18.00
2023-01-23T09:22:49.869Z,17.85
2023-01-23T09:25:17.069Z,17.90
2023-01-23T09:27:44.177Z,18.63
2023-01-23T09:30:12.092Z,19.30
2023-01-23T09:32:39.189Z,19.80
2023-01-23T09:35:06.566Z,17.80
2023-01-23T09:37:58.413Z,16.75
2023-01-23T09:40:32.496Z,19.70
2023-01-23T09:43:09.404Z,17.05
2023-01-23T09:45:39.420Z,18.80
2023-01-23T09:48:31.695Z,17.98
2023-01-23T09:51:04.033Z,16.25
2023-01-23T09:53:39.670Z,16.50
2023-01-23T09:56:17.800Z,16.00
2023-01-23T09:59:13.258Z,16.02
2023-01-23T10:01:40.859Z,16.50
2023-01-23T10:04:12.459Z,15.23
2023-01-23T10:07:05.713Z,15.70
2023-01-23T10:09:48.436Z,14.95
2023-01-23T10:12:47.655Z,15.75
2023-01-23T10:15:39.024Z,14.45
2023-01-23T10:18:08.647Z,13.82
2023-01-23T10:20:55.256Z,13.98
2023-01-23T10:23:40.095Z,14.82
2023-01-23T10:26:18.609Z,14.15
2023-01-23T10:28:47.543Z,14.50
2023-01-23T10:31:33.510Z,15.00
2023-01-23T10:34:11.865Z,13.35
2023-01-23T10:36:54.860Z,13.80
2023-01-23T10:39:37.476Z,13.65
2023-01-23T10:42:11.183Z,13.43
2023-01-23T10:47:16.511Z,15.05
2023-01-23T10:49:45.754Z,13.57
2023-01-23T10:52:36.103Z,13.70
2023-01-23T10:55:06.370Z,12.98
2023-01-23T10:57:45.020Z,13.02
2023-01-23T11:00:45.815Z,11.82
2023-01-23T11:03:29.030Z,13.40
2023-01-23T11:06:10.112Z,12.65
2023-01-23T11:08:42.685Z,12.18
2023-01-23T11:11:15.687Z,12.73
2023-01-23T11:13:44.481Z,13.13
2023-01-23T11:16:20.662Z,14.10
2023-01-23T11:19:02.839Z,13.75
2023-01-23T11:21:37.581Z,12.98
2023-01-23T11:24:30.661Z,13.13
2023-01-23T11:27:14.877Z,13.10
2023-01-23T11:29:59.964Z,11.70
2023-01-23T11:32:29.014Z,12.45
2023-01-23T11:35:13.846Z,12.07
2023-01-23T11:37:41.856Z,12.45
2023-01-23T11:40:19.449Z,14.10
2023-01-23T11:42:47.428Z,12.57
2023-01-23T11:45:35.556Z,11.95
2023-01-23T11:48:11.924Z,11.77
2023-01-23T11:51:24.423Z,13.02
2023-01-23T11:54:02.896Z,11.68
2023-01-23T11:56:55.887Z,11.48
2023-01-23T11:59:38.035Z,11.07
2023-01-23T12:02:19.909Z,10.93
2023-01-23T12:05:16.351Z,11.63
2023-01-23T12:08:04.171Z,11.57
2023-01-23T12:10:49.854Z,11.15
2023-01-23T12:13:31.954Z,11.32
2023-01-23T12:16:36.303Z,10.48
2023-01-23T12:19:12.074Z,10.75
2023-01-23T12:21:45.755Z,10.60
2023-01-23T12:27:21.697Z,9.57
2023-01-23T12:30:14.167Z,10.15
2023-01-23T12:32:56.819Z,9.25
2023-01-23T12:35:33.308Z,10.30
2023-01-23T12:38:27.108Z,9.32
2023-01-23T12:41:29.421Z,9.82
2023-01-23T12:44:13.572Z,9.48
2023-01-23T12:46:49.135Z,8.63
2023-01-23T12:49:27.054Z,9.15
2023-01-23T12:52:02.570Z,7.75
2023-01-23T12:54:51.479Z,9.55
2023-01-23T12:57:52.425Z,8.13
2023-01-23T13:00:42.245Z,8.63
2023-01-23T13:03:37.443Z,9.02
2023-01-23T13:06:40.138Z,9.00
2023-01-23T13:09:28.764Z,7.40
2023-01-23T13:12:08.737Z,8.00
2023-01-23T13:17:40.063Z,7.13
2023-01-23T13:20:43.205Z,7.75
2023-01-23T13:23:28.060Z,7.32
2023-01-23T13:26:28.784Z,6.53
2023-01-23T13:28:57.603Z,7.00
2023-01-23T13:31:34.272Z,7.63
2023-01-23T13:34:14.989Z,7.70
2023-01-23T13:36:44.955Z,6.85
2023-01-23T13:39:17.836Z,7.68
2023-01-23T13:41:46.649Z,6.88
2023-01-23T13:44:40.158Z,7.00
2023-01-23T14:24:55.012Z,11.27
2023-01-23T14:27:30.471Z,10.05
2023-01-23T14:30:19.512Z,9.80
2023-01-23T14:32:46.945Z,11.10
2023-01-23T14:35:18.641Z,10.10
2023-01-23T14:37:46.842Z,10.07
2023-01-23T14:40:25.854Z,9.88
2023-01-23T14:43:07.959Z,8.60
2023-01-23T14:45:37.231Z,8.02
2023-01-23T14:48:14.032Z,8.27
2023-01-23T14:50:41.805Z,8.52
2023-01-23T14:53:16.626Z,6.43
2023-01-23T14:55:49.875Z,6.60
2023-01-23T14:58:28.306Z,7.90
2023-01-23T15:00:56.925Z,7.95
2023-01-23T15:03:44.143Z,7.82
2023-01-23T15:06:31.256Z,7.82
2023-01-23T15:09:14.639Z,8.57
2023-01-23T15:11:42.654Z,8.27
2023-01-23T15:14:27.939Z,8.77
2023-01-23T15:17:07.452Z,8.40
2023-01-23T15:19:37.657Z,8.52
2023-01-23T15:22:26.470Z,8.68
2023-01-23T15:24:53.919Z,8.38
2023-01-23T15:27:35.908Z,7.78
2023-01-23T15:30:37.018Z,7.35
2023-01-23T15:33:07.232Z,7.68
2023-01-23T15:35:35.797Z,8.35
2023-01-23T15:38:05.390Z,8.02
2023-01-23T15:40:38.168Z,7.95
2023-01-23T15:43:11.557Z,8.60
2023-01-23T15:45:38.675Z,8.25
2023-01-23T15:48:06.263Z,8.52
2023-01-23T15:50:33.560Z,8.95
2023-01-23T15:53:00.583Z,8.90
2023-01-23T15:55:28.633Z,8.73
2023-01-23T15:57:56.418Z,8.77
2023-01-23T16:00:26.457Z,9.50
2023-01-23T16:02:57.112Z,9.85
2023-01-23T16:05:31.046Z,9.50
2023-01-23T16:08:02.968Z,10.43
2023-01-23T16:10:40.756Z,10.60
2023-01-23T16:13:12.563Z,11.70
2023-01-23T16:15:40.150Z,11.88
2023-01-23T16:18:07.643Z,11.75
2023-01-23T16:20:42.012Z,10.45
2023-01-23T16:23:21.617Z,11.57
2023-01-23T16:25:49.478Z,10.10
2023-01-23T16:28:26.230Z,10.65
2023-01-23T16:30:53.799Z,11.20
2023-01-23T16:33:21.652Z,10.70
2023-01-23T16:35:50.716Z,11.52
2023-01-23T16:38:24.326Z,11.75
2023-01-23T16:40:53.337Z,13.80
2023-01-23T16:43:21.960Z,14.32
2023-01-23T16:45:49.380Z,13.25
2023-01-23T16:48:26.495Z,13.52
2023-01-23T16:50:58.858Z,18.48
2023-01-23T16:53:38.129Z,17.35
2023-01-23T16:56:06.892Z,16.02
2023-01-23T16:58:41.307Z,16.15
2023-01-23T17:01:14.808Z,13.27
2023-01-23T17:03:42.155Z,12.73
2023-01-23T17:06:16.605Z,14.15
2023-01-23T17:08:43.758Z,14.95
2023-01-23T17:11:28.839Z,14.20
2023-01-23T17:13:59.203Z,13.82
2023-01-23T17:16:28.272Z,14.50
2023-01-23T17:18:58.860Z,15.18
2023-01-23T17:21:33.569Z,14.05
2023-01-23T17:24:00.640Z,14.07
2023-01-23T17:26:27.710Z,12.82
2023-01-23T17:28:55.776Z,13.65
2023-01-23T17:31:25.905Z,12.43
2023-01-23T17:33:53.336Z,11.93
2023-01-23T17:36:20.479Z,12.75
2023-01-23T17:38:48.001Z,11.45
2023-01-23T17:41:16.088Z,13.15
2023-01-23T17:43:48.423Z,13.55
2023-01-23T17:46:27.653Z,12.85
2023-01-23T17:48:58.659Z,12.82
2023-01-23T17:51:28.958Z,12.23
2023-01-23T17:53:56.212Z,12.88
2023-01-23T17:56:23.342Z,13.15
2023-01-23T17:58:50.472Z,12.70
2023-01-23T18:01:22.273Z,12.13
2023-01-23T18:03:50.862Z,12.43
2023-01-23T18:06:18.845Z,12.35
2023-01-23T18:08:47.091Z,12.70
2023-01-23T18:11:18.841Z,12.80
2023-01-23T18:14:20.679Z,13.48
2023-01-23T18:16:49.795Z,13.45
2023-01-23T18:19:27.687Z,12.15
2023-01-23T18:21:58.928Z,12.95
2023-01-23T18:24:31.882Z,13.90
2023-01-23T18:27:18.853Z,13.40
2023-01-23T18:30:16.788Z,12.50
2023-01-23T18:33:02.572Z,14.50
2023-01-23T18:35:38.238Z,13.68
2023-01-23T18:38:17.653Z,12.68
2023-01-23T18:41:06.357Z,12.43
2023-01-23T18:43:44.057Z,12.82
2023-01-23T18:46:16.496Z,12.88
2023-01-23T18:48:45.278Z,12.10
2023-01-23T18:51:31.161Z,13.02
2023-01-23T18:54:26.420Z,13.13
2023-01-23T18:57:47.580Z,13.95
2023-01-23T19:00:27.982Z,14.48
2023-01-23T19:03:05.933Z,14.18
2023-01-23T19:05:34.269Z,13.88
2023-01-23T19:08:02.501Z,14.35
2023-01-23T19:10:47.102Z,13.90
2023-01-23T19:13:17.438Z,14.30
2023-01-23T19:15:55.950Z,13.27
2023-01-23T19:18:39.762Z,13.77
2023-01-23T19:21:28.954Z,13.73
2023-01-23T19:24:00.522Z,13.90
2023-01-23T19:26:30.850Z,13.38
2023-01-23T19:28:59.932Z,13.23
2023-01-23T19:31:33.907Z,13.07
2023-01-23T19:34:04.668Z,13.75
2023-01-23T19:36:33.891Z,13.32
2023-01-23T19:39:03.082Z,12.90
2023-01-23T19:41:44.441Z,12.82
2023-01-23T19:44:16.974Z,13.07
2023-01-23T19:46:44.358Z,12.13
2023-01-23T19:49:12.567Z,14.50
2023-01-23T19:51:41.286Z,14.45
2023-01-23T19:54:13.825Z,14.65
2023-01-23T19:56:42.255Z,13.38
2023-01-23T19:59:10.145Z,14.45
2023-01-23T20:01:55.288Z,13.85
2023-01-23T20:04:24.073Z,13.20
2023-01-23T20:06:55.423Z,13.45
2023-01-23T20:09:22.681Z,13.05
2023-01-23T20:11:50.131Z,13.55
2023-01-23T20:14:17.266Z,13.68
2023-01-23T20:16:44.599Z,13.90
2023-01-23T20:19:15.587Z,13.70
2023-01-23T20:21:43.034Z,12.15
2023-01-23T20:24:10.632Z,13.00
2023-01-23T20:26:38.692Z,12.63
2023-01-23T20:29:07.098Z,13.85
2023-01-23T20:31:35.624Z,14.20
2023-01-23T20:34:02.965Z,12.20
2023-01-23T20:36:30.093Z,12.93
2023-01-23T20:38:57.212Z,12.90
2023-01-23T20:41:25.628Z,12.95
2023-01-23T20:43:53.195Z,13.73
2023-01-23T20:46:20.340Z,13.55
2023-01-23T20:48:47.611Z,13.88
2023-01-23T20:51:16.563Z,15.68
2023-01-23T20:53:44.461Z,12.70
2023-01-23T20:56:20.149Z,13.98
2023-01-23T20:59:08.218Z,12.25
2023-01-23T21:01:57.260Z,12.95
2023-01-23T21:04:30.548Z,12.18
2023-01-23T21:06:57.753Z,12.52
2023-01-23T21:09:25.924Z,11.88
2023-01-23T21:11:53.993Z,12.43
2023-01-23T21:14:22.736Z,13.70
2023-01-23T21:16:49.805Z,12.93
2023-01-23T21:19:17.065Z,11.98
2023-01-23T21:21:44.173Z,12.00
2023-01-23T21:24:12.556Z,12.38
2023-01-23T21:26:40.400Z,11.18
2023-01-23T21:29:08.111Z,11.07
2023-01-23T21:31:38.973Z,12.85
2023-01-23T21:34:10.099Z,11.80
2023-01-23T21:36:38.707Z,12.85
2023-01-23T21:39:07.557Z,11.90
2023-01-23T21:41:35.963Z,12.32
2023-01-23T21:44:03.092Z,12.20
2023-01-23T21:46:30.203Z,13.10
2023-01-23T21:48:57.345Z,12.45
2023-01-23T21:51:27.817Z,13.50
2023-01-23T21:53:57.505Z,12.95
2023-01-23T21:56:27.200Z,12.55
2023-01-23T21:58:55.306Z,12.75
2023-01-23T22:01:35.767Z,12.27
2023-01-23T22:04:06.906Z,12.27
2023-01-23T22:06:35.072Z,13.23
2023-01-23T22:09:03.588Z,12.45
2023-01-23T22:11:31.009Z,11.85
2023-01-23T22:13:58.238Z,11.88
2023-01-23T22:16:46.416Z,12.10
2023-01-23T22:19:15.633Z,13.00
2023-01-23T22:21:43.739Z,12.43
2023-01-23T22:24:13.773Z,13.38
2023-01-23T22:26:43.832Z,12.82
2023-01-23T22:29:13.182Z,12.68
2023-01-23T22:31:40.522Z,12.75
2023-01-23T22:34:07.934Z,13.52
2023-01-23T22:36:35.107Z,13.68
2023-01-23T22:39:02.613Z,12.73
2023-01-23T22:41:29.796Z,12.15
2023-01-23T22:43:59.308Z,13.50
2023-01-23T22:46:28.094Z,12.32
2023-01-23T22:48:55.561Z,11.98
2023-01-23T22:51:25.941Z,11.75
2023-01-23T22:53:54.961Z,12.02
2023-01-23T22:56:23.347Z,11.75
2023-01-23T22:58:52.089Z,10.80
2023-01-23T23:01:20.292Z,12.88
2023-01-23T23:03:47.536Z,10.90
2023-01-23T23:06:16.085Z,11.13
2023-01-23T23:08:47.281Z,11.35
2023-01-23T23:11:17.918Z,11.52
2023-01-23T23:13:45.658Z,12.02
2023-01-23T23:16:17.774Z,10.15
2023-01-23T23:18:49.954Z,11.60
2023-01-23T23:21:20.466Z,10.68
2023-01-23T23:23:48.009Z,11.00
2023-01-23T23:26:16.152Z,9.88
2023-01-23T23:28:43.448Z,10.05
2023-01-23T23:31:10.812Z,10.70
2023-01-23T23:33:38.494Z,10.48
2023-01-23T23:36:06.108Z,10.25
2023-01-23T23:38:33.338Z,10.23
2023-01-23T23:41:03.400Z,10.32
2023-01-23T23:43:30.758Z,9.93
2023-01-23T23:46:00.262Z,10.48
2023-01-23T23:48:29.001Z,10.77
2023-01-23T23:50:59.184Z,10.63
2023-01-23T23:53:26.409Z,10.68
2023-01-23T23:55:53.745Z,11.68
2023-01-23T23:58:21.176Z,10.45
